sensor_id;sensor_type;location;lat;lon;timestamp;temperature;humidity
5848;DHT22;8756;49.29324300;8.70599800;2022-12-07T00:01:30;4.90;99.90
5848;DHT22;8756;49.29324300;8.70599800;2022-12-07T00:04:01;4.90;99.90
5848;DHT22;8756;49.29324300;8.70599800;2022-12-07T00:06:39;4.90;99.90
5848;DHT22;8756;49.29324300;8.70599800;2022-12-07T00:09:10;4.90;99.90
5848;DHT22;8756;49.29324300;8.70599800;2022-12-07T00:11:38;4.80;99.90
5848;DHT22;8756;49.29324300;8.70599800;2022-12-07T00:14:06;4.70;99.90
5848;DHT22;8756;49.29324300;8.70599800;2022-12-07T00:16:35;4.60;99.90
5848;DHT22;8756;49.29324300;8.70599800;2022-12-07T00:19:03;4.60;99.90
5848;DHT22;8756;49.29324300;8.70599800;2022-12-07T00:21:32;4.50;99.90
5848;DHT22;8756;49.29324300;8.70599800;2022-12-07T00:23:59;4.50;99.90
5848;DHT22;8756;49.29324300;8.70599800;2022-12-07T00:26:34;4.50;99.90
5848;DHT22;8756;49.29324300;8.70599800;2022-12-07T00:29:08;4.60;99.90
5848;DHT22;8756;49.29324300;8.70599800;2022-12-07T00:31:37;4.60;99.90
5848;DHT22;8756;49.29324300;8.70599800;2022-12-07T00:34:13;4.70;99.90
5848;DHT22;8756;49.29324300;8.70599800;2022-12-07T00:36:41;4.70;99.90
5848;DHT22;8756;49.29324300;8.70599800;2022-12-07T00:39:07;4.70;99.90
5848;DHT22;8756;49.29324300;8.70599800;2022-12-07T00:41:32;4.70;99.90
5848;DHT22;8756;49.29324300;8.70599800;2022-12-07T00:43:58;4.70;99.90
5848;DHT22;8756;49.29324300;8.70599800;2022-12-07T00:46:25;4.70;99.90
5848;DHT22;8756;49.29324300;8.70599800;2022-12-07T00:48:52;4.70;99.90
5848;DHT22;8756;49.29324300;8.70599800;2022-12-07T00:51:20;4.70;99.90
5848;DHT22;8756;49.29324300;8.70599800;2022-12-07T00:53:47;4.70;99.90
5848;DHT22;8756;49.29324300;8.70599800;2022-12-07T00:56:18;4.70;99.90
5848;DHT22;8756;49.29324300;8.70599800;2022-12-07T00:59:12;4.70;99.90
5848;DHT22;8756;49.29324300;8.70599800;2022-12-07T01:01:42;4.60;99.90
5848;DHT22;8756;49.29324300;8.70599800;2022-12-07T01:04:07;4.60;99.90
5848;DHT22;8756;49.29324300;8.70599800;2022-12-07T01:06:33;4.60;99.90
5848;DHT22;8756;49.29324300;8.70599800;2022-12-07T01:09:00;4.60;99.90
5848;DHT22;8756;49.29324300;8.70599800;2022-12-07T01:11:28;4.60;99.90
5848;DHT22;8756;49.29324300;8.70599800;2022-12-07T01:13:57;4.50;99.90
5848;DHT22;8756;49.29324300;8.70599800;2022-12-07T01:16:26;4.50;99.90
5848;DHT22;8756;49.29324300;8.70599800;2022-12-07T01:18:54;4.50;99.90
5848;DHT22;8756;49.29324300;8.70599800;2022-12-07T01:21:26;4.50;99.90
5848;DHT22;8756;49.29324300;8.70599800;2022-12-07T01:23:53;4.50;99.90
5848;DHT22;8756;49.29324300;8.70599800;2022-12-07T01:26:21;4.50;99.90
5848;DHT22;8756;49.29324300;8.70599800;2022-12-07T01:28:48;4.50;99.90
5848;DHT22;8756;49.29324300;8.70599800;2022-12-07T01:31:16;4.50;99.90
5848;DHT22;8756;49.29324300;8.70599800;2022-12-07T01:33:45;4.60;99.90
5848;DHT22;8756;49.29324300;8.70599800;2022-12-07T01:36:18;4.50;99.90
5848;DHT22;8756;49.29324300;8.70599800;2022-12-07T01:38:45;4.50;99.90
5848;DHT22;8756;49.29324300;8.70599800;2022-12-07T01:41:13;4.50;99.90
5848;DHT22;8756;49.29324300;8.70599800;2022-12-07T01:47:02;4.50;99.90
5848;DHT22;8756;49.29324300;8.70599800;2022-12-07T01:49:44;4.50;99.90
5848;DHT22;8756;49.29324300;8.70599800;2022-12-07T01:55:09;4.60;99.90
5848;DHT22;8756;49.29324300;8.70599800;2022-12-07T01:57:40;4.60;99.90
5848;DHT22;8756;49.29324300;8.70599800;2022-12-07T02:00:08;4.70;99.90
5848;DHT22;8756;49.29324300;8.70599800;2022-12-07T02:02:40;4.70;99.90
5848;DHT22;8756;49.29324300;8.70599800;2022-12-07T02:05:08;4.60;99.90
5848;DHT22;8756;49.29324300;8.70599800;2022-12-07T02:07:36;4.60;99.90
5848;DHT22;8756;49.29324300;8.70599800;2022-12-07T02:10:21;4.70;99.90
5848;DHT22;8756;49.29324300;8.70599800;2022-12-07T02:24:31;4.50;99.90
5848;DHT22;8756;49.29324300;8.70599800;2022-12-07T02:32:24;4.50;99.90
5848;DHT22;8756;49.29324300;8.70599800;2022-12-07T02:34:55;4.50;99.90
5848;DHT22;8756;49.29324300;8.70599800;2022-12-07T02:40:14;4.50;99.90
5848;DHT22;8756;49.29324300;8.70599800;2022-12-07T02:42:48;4.50;99.90
5848;DHT22;8756;49.29324300;8.70599800;2022-12-07T02:45:36;4.50;99.90
5848;DHT22;8756;49.29324300;8.70599800;2022-12-07T02:48:06;4.50;99.90
5848;DHT22;8756;49.29324300;8.70599800;2022-12-07T02:50:33;4.50;99.90
5848;DHT22;8756;49.29324300;8.70599800;2022-12-07T02:52:58;4.50;99.90
5848;DHT22;8756;49.29324300;8.70599800;2022-12-07T02:55:37;4.50;99.90
5848;DHT22;8756;49.29324300;8.70599800;2022-12-07T03:00:58;4.50;99.90
5848;DHT22;8756;49.29324300;8.70599800;2022-12-07T03:03:31;4.50;99.90
5848;DHT22;8756;49.29324300;8.70599800;2022-12-07T03:06:19;4.50;99.90
5848;DHT22;8756;49.29324300;8.70599800;2022-12-07T03:09:20;4.50;99.90
5848;DHT22;8756;49.29324300;8.70599800;2022-12-07T03:12:03;4.50;99.90
5848;DHT22;8756;49.29324300;8.70599800;2022-12-07T03:14:38;4.30;99.90
5848;DHT22;8756;49.29324300;8.70599800;2022-12-07T03:17:14;4.30;99.90
5848;DHT22;8756;49.29324300;8.70599800;2022-12-07T03:19:45;4.30;99.90
5848;DHT22;8756;49.29324300;8.70599800;2022-12-07T03:22:13;4.30;99.90
5848;DHT22;8756;49.29324300;8.70599800;2022-12-07T03:24:53;4.40;99.90
5848;DHT22;8756;49.29324300;8.70599800;2022-12-07T03:27:31;4.40;99.90
5848;DHT22;8756;49.29324300;8.70599800;2022-12-07T03:30:06;4.40;99.90
5848;DHT22;8756;49.29324300;8.70599800;2022-12-07T03:32:37;4.40;99.90
5848;DHT22;8756;49.29324300;8.70599800;2022-12-07T03:35:11;4.40;99.90
5848;DHT22;8756;49.29324300;8.70599800;2022-12-07T03:37:51;4.30;99.90
5848;DHT22;8756;49.29324300;8.70599800;2022-12-07T03:40:33;4.30;99.90
5848;DHT22;8756;49.29324300;8.70599800;2022-12-07T03:43:21;4.30;99.90
5848;DHT22;8756;49.29324300;8.70599800;2022-12-07T03:51:50;4.30;99.90
5848;DHT22;8756;49.29324300;8.70599800;2022-12-07T03:54:26;4.40;99.90
5848;DHT22;8756;49.29324300;8.70599800;2022-12-07T03:56:59;4.40;99.90
5848;DHT22;8756;49.29324300;8.70599800;2022-12-07T03:59:27;4.30;99.90
5848;DHT22;8756;49.29324300;8.70599800;2022-12-07T04:01:57;4.30;99.90
5848;DHT22;8756;49.29324300;8.70599800;2022-12-07T04:04:28;4.30;99.90
5848;DHT22;8756;49.29324300;8.70599800;2022-12-07T04:06:54;4.30;99.90
5848;DHT22;8756;49.29324300;8.70599800;2022-12-07T04:09:20;4.30;99.90
5848;DHT22;8756;49.29324300;8.70599800;2022-12-07T04:11:46;4.20;99.90
5848;DHT22;8756;49.29324300;8.70599800;2022-12-07T04:14:12;4.30;99.90
5848;DHT22;8756;49.29324300;8.70599800;2022-12-07T04:16:56;4.30;99.90
5848;DHT22;8756;49.29324300;8.70599800;2022-12-07T04:19:25;4.30;99.90
5848;DHT22;8756;49.29324300;8.70599800;2022-12-07T04:21:56;4.30;99.90
5848;DHT22;8756;49.29324300;8.70599800;2022-12-07T04:24:23;4.30;99.90
5848;DHT22;8756;49.29324300;8.70599800;2022-12-07T04:26:49;4.30;99.90
5848;DHT22;8756;49.29324300;8.70599800;2022-12-07T04:29:16;4.30;99.90
5848;DHT22;8756;49.29324300;8.70599800;2022-12-07T04:31:42;4.30;99.90
5848;DHT22;8756;49.29324300;8.70599800;2022-12-07T04:34:09;4.30;99.90
5848;DHT22;8756;49.29324300;8.70599800;2022-12-07T04:36:35;4.30;99.90
5848;DHT22;8756;49.29324300;8.70599800;2022-12-07T04:39:02;4.30;99.90
5848;DHT22;8756;49.29324300;8.70599800;2022-12-07T04:41:28;4.30;99.90
5848;DHT22;8756;49.29324300;8.70599800;2022-12-07T04:43:55;4.30;99.90
5848;DHT22;8756;49.29324300;8.70599800;2022-12-07T04:46:24;4.30;99.90
5848;DHT22;8756;49.29324300;8.70599800;2022-12-07T04:48:51;4.30;99.90
5848;DHT22;8756;49.29324300;8.70599800;2022-12-07T04:51:23;4.40;99.90
5848;DHT22;8756;49.29324300;8.70599800;2022-12-07T04:53:51;4.30;99.90
5848;DHT22;8756;49.29324300;8.70599800;2022-12-07T04:56:17;4.30;99.90
5848;DHT22;8756;49.29324300;8.70599800;2022-12-07T04:58:44;4.30;99.90
5848;DHT22;8756;49.29324300;8.70599800;2022-12-07T05:01:11;4.30;99.90
5848;DHT22;8756;49.29324300;8.70599800;2022-12-07T05:03:37;4.30;99.90
5848;DHT22;8756;49.29324300;8.70599800;2022-12-07T05:06:04;4.20;99.90
5848;DHT22;8756;49.29324300;8.70599800;2022-12-07T05:08:32;4.30;99.90
5848;DHT22;8756;49.29324300;8.70599800;2022-12-07T05:10:58;4.30;99.90
5848;DHT22;8756;49.29324300;8.70599800;2022-12-07T05:13:25;4.30;99.90
5848;DHT22;8756;49.29324300;8.70599800;2022-12-07T05:15:50;4.20;99.90
5848;DHT22;8756;49.29324300;8.70599800;2022-12-07T05:18:16;4.30;99.90
5848;DHT22;8756;49.29324300;8.70599800;2022-12-07T05:20:43;4.30;99.90
5848;DHT22;8756;49.29324300;8.70599800;2022-12-07T05:23:09;4.30;99.90
5848;DHT22;8756;49.29324300;8.70599800;2022-12-07T05:25:35;4.20;99.90
5848;DHT22;8756;49.29324300;8.70599800;2022-12-07T05:28:02;4.20;99.90
5848;DHT22;8756;49.29324300;8.70599800;2022-12-07T05:30:28;4.20;99.90
5848;DHT22;8756;49.29324300;8.70599800;2022-12-07T05:32:53;4.20;99.90
5848;DHT22;8756;49.29324300;8.70599800;2022-12-07T05:35:19;4.20;99.90
5848;DHT22;8756;49.29324300;8.70599800;2022-12-07T05:37:45;4.20;99.90
5848;DHT22;8756;49.29324300;8.70599800;2022-12-07T05:40:13;4.20;99.90
5848;DHT22;8756;49.29324300;8.70599800;2022-12-07T05:42:39;4.20;99.90
5848;DHT22;8756;49.29324300;8.70599800;2022-12-07T05:45:06;4.20;99.90
5848;DHT22;8756;49.29324300;8.70599800;2022-12-07T05:47:32;4.20;99.90
5848;DHT22;8756;49.29324300;8.70599800;2022-12-07T05:49:58;4.20;99.90
5848;DHT22;8756;49.29324300;8.70599800;2022-12-07T05:52:24;4.20;99.90
5848;DHT22;8756;49.29324300;8.70599800;2022-12-07T05:54:50;4.20;99.90
5848;DHT22;8756;49.29324300;8.70599800;2022-12-07T05:57:16;4.30;99.90
5848;DHT22;8756;49.29324300;8.70599800;2022-12-07T05:59:41;4.30;99.90
5848;DHT22;8756;49.29324300;8.70599800;2022-12-07T06:02:10;4.30;99.90
5848;DHT22;8756;49.29324300;8.70599800;2022-12-07T06:04:40;4.30;99.90
5848;DHT22;8756;49.29324300;8.70599800;2022-12-07T06:07:07;4.20;99.90
5848;DHT22;8756;49.29324300;8.70599800;2022-12-07T06:09:34;4.20;99.90
5848;DHT22;8756;49.29324300;8.70599800;2022-12-07T06:12:00;4.20;99.90
5848;DHT22;8756;49.29324300;8.70599800;2022-12-07T06:14:45;4.20;99.90
5848;DHT22;8756;49.29324300;8.70599800;2022-12-07T06:17:11;4.20;99.90
5848;DHT22;8756;49.29324300;8.70599800;2022-12-07T06:19:38;4.20;99.90
5848;DHT22;8756;49.29324300;8.70599800;2022-12-07T06:22:04;4.20;99.90
5848;DHT22;8756;49.29324300;8.70599800;2022-12-07T06:24:31;4.20;99.90
5848;DHT22;8756;49.29324300;8.70599800;2022-12-07T06:26:57;4.20;99.90
5848;DHT22;8756;49.29324300;8.70599800;2022-12-07T06:29:23;4.20;99.90
5848;DHT22;8756;49.29324300;8.70599800;2022-12-07T06:31:49;4.20;99.90
5848;DHT22;8756;49.29324300;8.70599800;2022-12-07T06:34:18;4.20;99.90
5848;DHT22;8756;49.29324300;8.70599800;2022-12-07T06:36:45;4.20;99.90
5848;DHT22;8756;49.29324300;8.70599800;2022-12-07T06:39:20;4.20;99.90
5848;DHT22;8756;49.29324300;8.70599800;2022-12-07T06:41:50;4.20;99.90
5848;DHT22;8756;49.29324300;8.70599800;2022-12-07T06:44:17;4.20;99.90
5848;DHT22;8756;49.29324300;8.70599800;2022-12-07T06:46:43;4.20;99.90
5848;DHT22;8756;49.29324300;8.70599800;2022-12-07T06:49:10;4.20;99.90
5848;DHT22;8756;49.29324300;8.70599800;2022-12-07T06:51:36;4.20;99.90
5848;DHT22;8756;49.29324300;8.70599800;2022-12-07T06:54:09;4.20;99.90
5848;DHT22;8756;49.29324300;8.70599800;2022-12-07T06:56:36;4.20;99.90
5848;DHT22;8756;49.29324300;8.70599800;2022-12-07T06:59:03;4.30;99.90
5848;DHT22;8756;49.29324300;8.70599800;2022-12-07T07:01:30;4.30;99.90
5848;DHT22;8756;49.29324300;8.70599800;2022-12-07T07:03:56;4.20;99.90
5848;DHT22;8756;49.29324300;8.70599800;2022-12-07T07:06:22;4.20;99.90
5848;DHT22;8756;49.29324300;8.70599800;2022-12-07T07:08:47;4.30;99.90
5848;DHT22;8756;49.29324300;8.70599800;2022-12-07T07:11:13;4.30;99.90
5848;DHT22;8756;49.29324300;8.70599800;2022-12-07T07:13:39;4.30;99.90
5848;DHT22;8756;49.29324300;8.70599800;2022-12-07T07:16:06;4.30;99.90
5848;DHT22;8756;49.29324300;8.70599800;2022-12-07T07:18:36;4.30;99.90
5848;DHT22;8756;49.29324300;8.70599800;2022-12-07T07:21:02;4.30;99.90
5848;DHT22;8756;49.29324300;8.70599800;2022-12-07T07:23:28;4.30;99.90
5848;DHT22;8756;49.29324300;8.70599800;2022-12-07T07:25:54;4.30;99.90
5848;DHT22;8756;49.29324300;8.70599800;2022-12-07T07:28:20;4.30;99.90
5848;DHT22;8756;49.29324300;8.70599800;2022-12-07T07:30:45;4.30;99.90
5848;DHT22;8756;49.29324300;8.70599800;2022-12-07T07:33:11;4.30;99.90
5848;DHT22;8756;49.29324300;8.70599800;2022-12-07T07:35:37;4.40;99.90
5848;DHT22;8756;49.29324300;8.70599800;2022-12-07T07:38:04;4.40;99.90
5848;DHT22;8756;49.29324300;8.70599800;2022-12-07T07:40:30;4.40;99.90
5848;DHT22;8756;49.29324300;8.70599800;2022-12-07T07:42:56;4.40;99.90
5848;DHT22;8756;49.29324300;8.70599800;2022-12-07T07:45:24;4.40;99.90
5848;DHT22;8756;49.29324300;8.70599800;2022-12-07T07:47:51;4.40;99.90
5848;DHT22;8756;49.29324300;8.70599800;2022-12-07T07:50:17;4.40;99.90
5848;DHT22;8756;49.29324300;8.70599800;2022-12-07T07:52:44;4.40;99.90
5848;DHT22;8756;49.29324300;8.70599800;2022-12-07T07:55:10;4.40;99.90
5848;DHT22;8756;49.29324300;8.70599800;2022-12-07T07:57:37;4.40;99.90
5848;DHT22;8756;49.29324300;8.70599800;2022-12-07T08:00:05;4.40;99.90
5848;DHT22;8756;49.29324300;8.70599800;2022-12-07T08:02:35;4.40;99.90
5848;DHT22;8756;49.29324300;8.70599800;2022-12-07T08:05:00;4.50;99.90
5848;DHT22;8756;49.29324300;8.70599800;2022-12-07T08:07:27;4.50;99.90
5848;DHT22;8756;49.29324300;8.70599800;2022-12-07T08:09:53;4.50;99.90
5848;DHT22;8756;49.29324300;8.70599800;2022-12-07T08:12:19;4.50;99.90
5848;DHT22;8756;49.29324300;8.70599800;2022-12-07T08:14:45;4.50;99.90
5848;DHT22;8756;49.29324300;8.70599800;2022-12-07T08:17:11;4.50;99.90
5848;DHT22;8756;49.29324300;8.70599800;2022-12-07T08:19:38;4.50;99.90
5848;DHT22;8756;49.29324300;8.70599800;2022-12-07T08:22:04;4.50;99.90
5848;DHT22;8756;49.29324300;8.70599800;2022-12-07T08:24:30;4.50;99.90
5848;DHT22;8756;49.29324300;8.70599800;2022-12-07T08:26:59;4.50;99.90
5848;DHT22;8756;49.29324300;8.70599800;2022-12-07T08:29:24;4.50;99.90
5848;DHT22;8756;49.29324300;8.70599800;2022-12-07T08:31:50;4.50;99.90
5848;DHT22;8756;49.29324300;8.70599800;2022-12-07T08:34:15;4.50;99.90
5848;DHT22;8756;49.29324300;8.70599800;2022-12-07T08:36:41;4.40;99.90
5848;DHT22;8756;49.29324300;8.70599800;2022-12-07T08:39:07;4.40;99.90
5848;DHT22;8756;49.29324300;8.70599800;2022-12-07T08:41:33;4.40;99.90
5848;DHT22;8756;49.29324300;8.70599800;2022-12-07T08:43:59;4.40;99.90
5848;DHT22;8756;49.29324300;8.70599800;2022-12-07T08:46:49;4.50;99.90
5848;DHT22;8756;49.29324300;8.70599800;2022-12-07T08:49:37;4.50;99.90
5848;DHT22;8756;49.29324300;8.70599800;2022-12-07T08:52:05;4.50;99.90
5848;DHT22;8756;49.29324300;8.70599800;2022-12-07T08:54:33;4.50;99.90
5848;DHT22;8756;49.29324300;8.70599800;2022-12-07T08:57:01;4.50;99.90
5848;DHT22;8756;49.29324300;8.70599800;2022-12-07T08:59:27;4.50;99.90
5848;DHT22;8756;49.29324300;8.70599800;2022-12-07T09:01:54;4.60;99.90
5848;DHT22;8756;49.29324300;8.70599800;2022-12-07T09:04:20;4.60;99.90
5848;DHT22;8756;49.29324300;8.70599800;2022-12-07T09:06:46;4.60;99.90
5848;DHT22;8756;49.29324300;8.70599800;2022-12-07T09:09:13;4.60;99.90
5848;DHT22;8756;49.29324300;8.70599800;2022-12-07T09:11:39;4.60;99.90
5848;DHT22;8756;49.29324300;8.70599800;2022-12-07T09:14:05;4.60;99.90
5848;DHT22;8756;49.29324300;8.70599800;2022-12-07T09:16:31;4.60;99.90
5848;DHT22;8756;49.29324300;8.70599800;2022-12-07T09:18:57;4.60;99.90
5848;DHT22;8756;49.29324300;8.70599800;2022-12-07T09:21:23;4.60;99.90
5848;DHT22;8756;49.29324300;8.70599800;2022-12-07T09:23:48;4.60;99.90
5848;DHT22;8756;49.29324300;8.70599800;2022-12-07T09:26:14;4.60;99.90
5848;DHT22;8756;49.29324300;8.70599800;2022-12-07T09:28:40;4.60;99.90
5848;DHT22;8756;49.29324300;8.70599800;2022-12-07T09:31:06;4.70;99.90
5848;DHT22;8756;49.29324300;8.70599800;2022-12-07T09:33:32;4.70;99.90
5848;DHT22;8756;49.29324300;8.70599800;2022-12-07T09:35:58;4.70;99.90
5848;DHT22;8756;49.29324300;8.70599800;2022-12-07T09:38:23;4.70;99.90
5848;DHT22;8756;49.29324300;8.70599800;2022-12-07T09:40:53;4.70;99.90
5848;DHT22;8756;49.29324300;8.70599800;2022-12-07T09:43:22;4.70;99.90
5848;DHT22;8756;49.29324300;8.70599800;2022-12-07T09:45:51;4.80;99.90
5848;DHT22;8756;49.29324300;8.70599800;2022-12-07T09:48:24;4.70;99.90
5848;DHT22;8756;49.29324300;8.70599800;2022-12-07T09:50:57;4.80;99.90
5848;DHT22;8756;49.29324300;8.70599800;2022-12-07T09:53:30;4.80;99.90
5848;DHT22;8756;49.29324300;8.70599800;2022-12-07T09:55:59;4.70;99.90
5848;DHT22;8756;49.29324300;8.70599800;2022-12-07T09:58:27;4.70;99.90
5848;DHT22;8756;49.29324300;8.70599800;2022-12-07T10:01:00;4.80;99.90
5848;DHT22;8756;49.29324300;8.70599800;2022-12-07T10:03:30;4.80;99.90
5848;DHT22;8756;49.29324300;8.70599800;2022-12-07T10:05:57;4.70;99.90
5848;DHT22;8756;49.29324300;8.70599800;2022-12-07T10:08:24;4.70;99.90
5848;DHT22;8756;49.29324300;8.70599800;2022-12-07T10:10:52;4.70;99.90
5848;DHT22;8756;49.29324300;8.70599800;2022-12-07T10:13:33;4.80;99.90
5848;DHT22;8756;49.29324300;8.70599800;2022-12-07T10:16:03;4.80;99.90
5848;DHT22;8756;49.29324300;8.70599800;2022-12-07T10:18:33;4.80;99.90
5848;DHT22;8756;49.29324300;8.70599800;2022-12-07T10:21:22;4.90;99.90
5848;DHT22;8756;49.29324300;8.70599800;2022-12-07T10:24:21;4.90;99.90
5848;DHT22;8756;49.29324300;8.70599800;2022-12-07T10:29:32;4.90;99.90
5848;DHT22;8756;49.29324300;8.70599800;2022-12-07T10:35:23;4.90;99.90
5848;DHT22;8756;49.29324300;8.70599800;2022-12-07T10:37:50;4.90;99.90
5848;DHT22;8756;49.29324300;8.70599800;2022-12-07T10:40:31;4.90;99.90
5848;DHT22;8756;49.29324300;8.70599800;2022-12-07T10:49:11;4.90;99.90
5848;DHT22;8756;49.29324300;8.70599800;2022-12-07T11:05:27;5.10;99.90
5848;DHT22;8756;49.29324300;8.70599800;2022-12-07T11:08:15;5.10;99.90
5848;DHT22;8756;49.29324300;8.70599800;2022-12-07T11:11:00;5.10;99.90
5848;DHT22;8756;49.29324300;8.70599800;2022-12-07T11:30:43;5.20;99.90
5848;DHT22;8756;49.29324300;8.70599800;2022-12-07T11:41:40;5.20;99.90
5848;DHT22;8756;49.29324300;8.70599800;2022-12-07T11:44:44;5.20;99.90
5848;DHT22;8756;49.29324300;8.70599800;2022-12-07T11:47:09;5.20;99.90
5848;DHT22;8756;49.29324300;8.70599800;2022-12-07T11:49:43;5.20;99.90
5848;DHT22;8756;49.29324300;8.70599800;2022-12-07T12:01:31;5.30;99.90
5848;DHT22;8756;49.29324300;8.70599800;2022-12-07T12:06:35;5.30;99.90
5848;DHT22;8756;49.29324300;8.70599800;2022-12-07T12:20:43;5.30;99.90
5848;DHT22;8756;49.29324300;8.70599800;2022-12-07T12:23:22;5.30;99.90
5848;DHT22;8756;49.29324300;8.70599800;2022-12-07T12:25:55;5.30;99.90
5848;DHT22;8756;49.29324300;8.70599800;2022-12-07T12:28:27;5.30;99.90
5848;DHT22;8756;49.29324300;8.70599800;2022-12-07T12:31:16;5.30;99.90
5848;DHT22;8756;49.29324300;8.70599800;2022-12-07T12:33:56;5.30;99.90
5848;DHT22;8756;49.29324300;8.70599800;2022-12-07T12:47:04;5.30;99.90
5848;DHT22;8756;49.29324300;8.70599800;2022-12-07T12:50:20;5.30;99.90
5848;DHT22;8756;49.29324300;8.70599800;2022-12-07T12:53:13;5.30;99.90
5848;DHT22;8756;49.29324300;8.70599800;2022-12-07T13:03:57;5.30;99.90
5848;DHT22;8756;49.29324300;8.70599800;2022-12-07T13:08:55;5.30;99.90
5848;DHT22;8756;49.29324300;8.70599800;2022-12-07T13:11:38;5.40;99.90
5848;DHT22;8756;49.29324300;8.70599800;2022-12-07T13:17:12;5.40;99.90
5848;DHT22;8756;49.29324300;8.70599800;2022-12-07T13:19:59;5.40;99.90
5848;DHT22;8756;49.29324300;8.70599800;2022-12-07T13:27:46;5.40;99.90
5848;DHT22;8756;49.29324300;8.70599800;2022-12-07T13:30:18;5.40;99.90
5848;DHT22;8756;49.29324300;8.70599800;2022-12-07T13:32:53;5.40;99.90
5848;DHT22;8756;49.29324300;8.70599800;2022-12-07T13:35:34;5.40;99.90
5848;DHT22;8756;49.29324300;8.70599800;2022-12-07T13:38:23;5.40;99.90
5848;DHT22;8756;49.29324300;8.70599800;2022-12-07T13:43:28;5.40;99.90
5848;DHT22;8756;49.29324300;8.70599800;2022-12-07T13:45:58;5.40;99.90
5848;DHT22;8756;49.29324300;8.70599800;2022-12-07T13:48:44;5.40;99.90
5848;DHT22;8756;49.29324300;8.70599800;2022-12-07T13:53:49;5.40;99.90
5848;DHT22;8756;49.29324300;8.70599800;2022-12-07T13:56:35;5.40;99.90
5848;DHT22;8756;49.29324300;8.70599800;2022-12-07T13:59:02;5.40;99.90
5848;DHT22;8756;49.29324300;8.70599800;2022-12-07T14:01:31;5.40;99.90
5848;DHT22;8756;49.29324300;8.70599800;2022-12-07T14:04:31;5.40;99.90
5848;DHT22;8756;49.29324300;8.70599800;2022-12-07T14:06:59;5.40;99.90
5848;DHT22;8756;49.29324300;8.70599800;2022-12-07T14:09:28;5.40;99.90
5848;DHT22;8756;49.29324300;8.70599800;2022-12-07T14:11:56;5.40;99.90
5848;DHT22;8756;49.29324300;8.70599800;2022-12-07T14:14:29;5.40;99.90
5848;DHT22;8756;49.29324300;8.70599800;2022-12-07T14:17:08;5.40;99.90
5848;DHT22;8756;49.29324300;8.70599800;2022-12-07T14:19:42;5.40;99.90
5848;DHT22;8756;49.29324300;8.70599800;2022-12-07T14:22:37;5.40;99.90
5848;DHT22;8756;49.29324300;8.70599800;2022-12-07T14:25:17;5.40;99.90
5848;DHT22;8756;49.29324300;8.70599800;2022-12-07T14:30:23;5.40;99.90
5848;DHT22;8756;49.29324300;8.70599800;2022-12-07T14:32:59;5.40;99.90
5848;DHT22;8756;49.29324300;8.70599800;2022-12-07T14:35:26;5.40;99.90
5848;DHT22;8756;49.29324300;8.70599800;2022-12-07T14:37:52;5.40;99.90
5848;DHT22;8756;49.29324300;8.70599800;2022-12-07T14:40:21;5.40;99.90
5848;DHT22;8756;49.29324300;8.70599800;2022-12-07T14:42:57;5.40;99.90
5848;DHT22;8756;49.29324300;8.70599800;2022-12-07T14:45:28;5.40;99.90
5848;DHT22;8756;49.29324300;8.70599800;2022-12-07T14:47:53;5.40;99.90
5848;DHT22;8756;49.29324300;8.70599800;2022-12-07T14:50:20;5.40;99.90
5848;DHT22;8756;49.29324300;8.70599800;2022-12-07T14:52:54;5.40;99.90
5848;DHT22;8756;49.29324300;8.70599800;2022-12-07T14:55:25;5.40;99.90
5848;DHT22;8756;49.29324300;8.70599800;2022-12-07T14:57:53;5.40;99.90
5848;DHT22;8756;49.29324300;8.70599800;2022-12-07T15:00:21;5.40;99.90
5848;DHT22;8756;49.29324300;8.70599800;2022-12-07T15:02:51;5.40;99.90
5848;DHT22;8756;49.29324300;8.70599800;2022-12-07T15:05:17;5.40;99.90
5848;DHT22;8756;49.29324300;8.70599800;2022-12-07T15:07:44;5.40;99.90
5848;DHT22;8756;49.29324300;8.70599800;2022-12-07T15:10:29;5.40;99.90
5848;DHT22;8756;49.29324300;8.70599800;2022-12-07T15:13:02;5.40;99.90
5848;DHT22;8756;49.29324300;8.70599800;2022-12-07T15:15:47;5.40;99.90
5848;DHT22;8756;49.29324300;8.70599800;2022-12-07T15:18:14;5.40;99.90
5848;DHT22;8756;49.29324300;8.70599800;2022-12-07T15:20:40;5.40;99.90
5848;DHT22;8756;49.29324300;8.70599800;2022-12-07T15:23:06;5.40;99.90
5848;DHT22;8756;49.29324300;8.70599800;2022-12-07T15:25:32;5.40;99.90
5848;DHT22;8756;49.29324300;8.70599800;2022-12-07T15:27:58;5.30;99.90
5848;DHT22;8756;49.29324300;8.70599800;2022-12-07T15:30:24;5.30;99.90
5848;DHT22;8756;49.29324300;8.70599800;2022-12-07T15:32:53;5.30;99.90
5848;DHT22;8756;49.29324300;8.70599800;2022-12-07T15:35:20;5.30;99.90
5848;DHT22;8756;49.29324300;8.70599800;2022-12-07T15:37:46;5.30;99.90
5848;DHT22;8756;49.29324300;8.70599800;2022-12-07T15:40:12;5.20;99.90
5848;DHT22;8756;49.29324300;8.70599800;2022-12-07T15:42:39;5.20;99.90
5848;DHT22;8756;49.29324300;8.70599800;2022-12-07T15:45:07;5.30;99.90
5848;DHT22;8756;49.29324300;8.70599800;2022-12-07T15:47:42;5.20;99.90
5848;DHT22;8756;49.29324300;8.70599800;2022-12-07T15:50:13;5.20;99.90
5848;DHT22;8756;49.29324300;8.70599800;2022-12-07T15:52:40;5.20;99.90
5848;DHT22;8756;49.29324300;8.70599800;2022-12-07T15:55:06;5.20;99.90
5848;DHT22;8756;49.29324300;8.70599800;2022-12-07T15:57:35;5.20;99.90
5848;DHT22;8756;49.29324300;8.70599800;2022-12-07T16:00:03;5.20;99.90
5848;DHT22;8756;49.29324300;8.70599800;2022-12-07T16:02:30;5.20;99.90
5848;DHT22;8756;49.29324300;8.70599800;2022-12-07T16:04:55;5.20;99.90
5848;DHT22;8756;49.29324300;8.70599800;2022-12-07T16:07:22;5.10;99.90
5848;DHT22;8756;49.29324300;8.70599800;2022-12-07T16:09:48;5.20;99.90
5848;DHT22;8756;49.29324300;8.70599800;2022-12-07T16:12:15;5.10;99.90
5848;DHT22;8756;49.29324300;8.70599800;2022-12-07T16:14:41;5.10;99.90
5848;DHT22;8756;49.29324300;8.70599800;2022-12-07T16:17:08;5.20;99.90
5848;DHT22;8756;49.29324300;8.70599800;2022-12-07T16:19:35;5.10;99.90
5848;DHT22;8756;49.29324300;8.70599800;2022-12-07T16:22:02;5.10;99.90
5848;DHT22;8756;49.29324300;8.70599800;2022-12-07T16:24:29;5.10;99.90
5848;DHT22;8756;49.29324300;8.70599800;2022-12-07T16:26:56;5.10;99.90
5848;DHT22;8756;49.29324300;8.70599800;2022-12-07T16:29:22;5.10;99.90
5848;DHT22;8756;49.29324300;8.70599800;2022-12-07T16:31:51;5.00;99.90
5848;DHT22;8756;49.29324300;8.70599800;2022-12-07T16:34:17;5.10;99.90
5848;DHT22;8756;49.29324300;8.70599800;2022-12-07T16:36:43;5.00;99.90
5848;DHT22;8756;49.29324300;8.70599800;2022-12-07T16:39:09;5.00;99.90
5848;DHT22;8756;49.29324300;8.70599800;2022-12-07T16:41:35;5.00;99.90